Leesburg, Ohio
Current Conditions -  °F | °C
As of 12:54 AM on Tuesday 21 Oct 2014 (Local Time) from KILN Reporting Station
Overcast Overcast  
Wind Chill: 53°   Ceiling: 9500
Heat Index: 53°   Visibility: 9mi
Dew Point: 50°   Wind: 7mph
Humidity: 89%   Direction: 290°WNW
Pressure: 29.89"   Gusts: NA
Location:  39.35°N, 83.55°W
Report Text: KILN 210454Z AUTO 29006KT 9SM OVC095 12/10 A2989 RMK AO2 SLPNO T01170100 401610061
Loading
Personal Weather Stations






























Interactive Weather Map
Tropical Storm Tracking
New forecast layout! Learn more

10-Day Weather Forecast

Advertisements
Track Severe Weather on mobile